Time;durP1;ratioP1;P1;durP2;ratioP2;P2;SDS_P1;SDS_P2;PMS_P1;PMS_P2;Temp;Humidity;BMP_temperature;BMP_pressure;BME280_temperature;BME280_humidity;BME280_pressure;Samples;Min_cycle;Max_cycle;Signal;HPM_P1;HPM_P2
2022/06/19 00:00:52;;;;;;;9.93;7.60;;;14.20;99.90;;;;;;5077867;28;20040;-54
2022/06/19 00:03:31;;;;;;;10.98;7.70;;;14.20;99.90;;;;;;5077947;28;20048;-54
2022/06/19 00:05:58;;;;;;;11.98;7.55;;;14.20;99.90;;;;;;5077906;28;20111;-54
2022/06/19 00:08:24;;;;;;;16.83;11.32;;;14.20;99.90;;;;;;5077806;28;20063;-54
2022/06/19 00:10:50;;;;;;;16.15;10.23;;;14.20;99.90;;;;;;5077887;28;20029;-54
2022/06/19 00:13:16;;;;;;;13.38;9.13;;;14.20;99.90;;;;;;5077597;28;20035;-54
2022/06/19 00:15:42;;;;;;;15.07;8.07;;;14.10;99.90;;;;;;5077712;28;20029;-54
2022/06/19 00:18:09;;;;;;;13.40;7.68;;;14.10;99.90;;;;;;5077759;28;20150;-54
2022/06/19 00:20:35;;;;;;;9.68;7.05;;;14.10;99.90;;;;;;5077826;28;20044;-54
2022/06/19 00:23:01;;;;;;;12.23;8.07;;;14.00;99.90;;;;;;5077954;28;20021;-54
2022/06/19 00:25:27;;;;;;;10.13;7.05;;;14.00;99.90;;;;;;5077602;28;20052;-54
2022/06/19 00:27:53;;;;;;;8.35;7.05;;;13.90;99.90;;;;;;5077299;28;20068;-54
2022/06/19 00:30:19;;;;;;;17.00;9.82;;;13.90;99.90;;;;;;5077559;28;20031;-54
2022/06/19 00:32:45;;;;;;;14.57;9.57;;;14.00;99.90;;;;;;5077467;28;20103;-54
2022/06/19 00:35:11;;;;;;;14.32;9.65;;;14.00;99.90;;;;;;5077303;28;20025;-54
2022/06/19 00:37:37;;;;;;;13.20;9.02;;;13.90;99.90;;;;;;5077292;28;20374;-54
2022/06/19 00:40:06;;;;;;;14.50;8.70;;;13.80;99.90;;;;;;5076994;28;20059;-54
2022/06/19 00:42:32;;;;;;;8.93;7.53;;;13.70;99.90;;;;;;5077180;28;20117;-54
2022/06/19 00:44:58;;;;;;;12.23;7.57;;;13.70;99.90;;;;;;5077155;28;20033;-54
2022/06/19 00:47:29;;;;;;;14.10;7.57;;;13.70;99.90;;;;;;5077208;28;20063;-54
2022/06/19 00:50:01;;;;;;;;;;;13.70;99.90;;;;;;5077386;28;20037;-54
2022/06/19 00:52:36;;;;;;;12.32;7.97;;;13.60;99.90;;;;;;5076831;28;19917;-54
2022/06/19 00:55:16;;;;;;;11.02;7.88;;;13.70;99.90;;;;;;5077076;28;20687;-54
2022/06/19 00:57:46;;;;;;;11.85;7.47;;;13.70;99.90;;;;;;5076608;28;20052;-54
2022/06/19 01:00:20;;;;;;;11.40;8.13;;;13.70;99.90;;;;;;5076987;28;20028;-54
2022/06/19 01:02:46;;;;;;;10.70;7.15;;;13.60;99.90;;;;;;5076880;28;20269;-54
2022/06/19 01:05:15;;;;;;;12.27;7.90;;;13.60;99.90;;;;;;5076850;28;20052;-54
2022/06/19 01:07:43;;;;;;;10.95;6.93;;;13.60;99.90;;;;;;5077389;28;20031;-54
2022/06/19 01:10:12;;;;;;;11.50;7.80;;;13.50;99.90;;;;;;5076700;28;20024;-54
2022/06/19 01:12:45;;;;;;;9.95;7.22;;;13.50;99.90;;;;;;5076683;28;20071;-54
2022/06/19 01:15:15;;;;;;;12.73;8.25;;;13.40;99.90;;;;;;5076641;28;20135;-54
2022/06/19 01:17:44;;;;;;;9.77;7.33;;;13.30;99.90;;;;;;5076575;28;20052;-54
2022/06/19 01:20:11;;;;;;;8.90;7.45;;;13.30;99.90;;;;;;5076779;28;20059;-54
2022/06/19 01:22:49;;;;;;;10.55;7.03;;;13.30;99.90;;;;;;5076584;28;20386;-54
2022/06/19 01:25:19;;;;;;;12.88;7.72;;;13.30;99.90;;;;;;5076312;28;20040;-54
2022/06/19 01:30:44;;;;;;;13.48;8.35;;;13.40;99.90;;;;;;5076392;28;20029;-54
2022/06/19 01:33:16;;;;;;;14.45;8.25;;;13.30;99.90;;;;;;5076248;28;20100;-54
2022/06/19 01:35:45;;;;;;;14.05;8.35;;;13.30;99.90;;;;;;5076360;28;20450;-54
2022/06/19 01:38:14;;;;;;;12.32;8.27;;;13.30;99.90;;;;;;5076298;28;20024;-54
2022/06/19 01:40:44;;;;;;;11.00;7.70;;;13.40;99.90;;;;;;5075872;28;20033;-54
2022/06/19 01:43:11;;;;;;;12.93;8.10;;;13.40;99.90;;;;;;5076219;28;20024;-54
2022/06/19 01:45:44;;;;;;;12.65;8.05;;;13.40;99.90;;;;;;5076005;28;20029;-54
2022/06/19 01:48:10;;;;;;;9.32;7.78;;;13.30;99.90;;;;;;5075967;28;20503;-54
2022/06/19 01:50:36;;;;;;;12.07;8.50;;;13.30;99.90;;;;;;5076109;28;20028;-54
2022/06/19 01:53:10;;;;;;;17.08;9.70;;;13.30;99.90;;;;;;5075473;28;20052;-54
2022/06/19 01:55:37;;;;;;;14.27;8.85;;;13.30;99.90;;;;;;5075926;28;20072;-54
2022/06/19 01:58:04;;;;;;;15.40;9.13;;;13.20;99.90;;;;;;5075783;28;20028;-54
2022/06/19 02:00:32;;;;;;;17.75;9.43;;;13.20;99.90;;;;;;5075631;28;20027;-54
2022/06/19 02:03:07;;;;;;;14.13;7.90;;;13.10;99.90;;;;;;5075705;28;20070;-54
2022/06/19 02:05:34;;;;;;;15.25;9.35;;;13.10;99.90;;;;;;5075459;28;20031;-54
2022/06/19 02:08:00;;;;;;;11.98;9.07;;;13.00;99.90;;;;;;5075466;28;20135;-54
2022/06/19 02:10:26;;;;;;;12.55;8.27;;;12.90;99.90;;;;;;5074937;28;20056;-54
2022/06/19 02:12:52;;;;;;;11.80;7.65;;;13.00;99.90;;;;;;5075514;28;20016;-54
2022/06/19 02:15:18;;;;;;;13.27;7.53;;;13.00;99.90;;;;;;5075334;28;20029;-54
2022/06/19 02:17:51;;;;;;;8.95;7.40;;;12.90;99.90;;;;;;5075570;28;20021;-54
2022/06/19 02:20:19;;;;;;;15.02;7.38;;;12.90;99.90;;;;;;5075288;28;20485;-54
2022/06/19 02:22:45;;;;;;;9.07;6.57;;;12.80;99.90;;;;;;5075215;28;20616;-54
2022/06/19 02:25:12;;;;;;;18.15;11.32;;;12.80;99.90;;;;;;5075372;28;20020;-54
2022/06/19 02:27:38;;;;;;;19.20;11.00;;;12.80;99.90;;;;;;5075124;28;20470;-54
2022/06/19 02:30:07;;;;;;;16.58;10.20;;;12.80;99.90;;;;;;5075073;28;20116;-54
2022/06/19 02:32:40;;;;;;;13.00;9.43;;;12.90;99.90;;;;;;5074990;28;20381;-54
2022/06/19 02:35:12;;;;;;;16.25;10.00;;;12.80;99.90;;;;;;5075136;28;20497;-54
2022/06/19 02:37:42;;;;;;;16.55;9.02;;;12.80;99.90;;;;;;5074999;28;20454;-54
2022/06/19 02:40:45;;;;;;;10.73;8.25;;;12.80;99.90;;;;;;5075013;28;20097;-54
2022/06/19 02:43:21;;;;;;;11.13;8.18;;;12.70;99.90;;;;;;5074935;28;20117;-54
2022/06/19 02:45:47;;;;;;;10.70;8.10;;;12.70;99.90;;;;;;5074937;28;20048;-54
2022/06/19 02:48:29;;;;;;;13.25;8.23;;;12.60;99.90;;;;;;5074753;28;20032;-54
2022/06/19 02:50:57;;;;;;;15.07;8.43;;;12.60;99.90;;;;;;5074840;28;20021;-54
2022/06/19 02:53:24;;;;;;;12.98;8.45;;;12.70;99.90;;;;;;5074831;28;20048;-54
2022/06/19 02:55:50;;;;;;;9.98;7.75;;;12.70;99.90;;;;;;5074760;28;20040;-54
2022/06/19 02:58:19;;;;;;;13.73;7.90;;;12.80;99.90;;;;;;5074604;28;20036;-54
2022/06/19 03:00:49;;;;;;;14.30;7.80;;;12.80;99.90;;;;;;5074764;28;20425;-54
2022/06/19 03:03:27;;;;;;;14.05;9.23;;;12.80;99.90;;;;;;5074641;28;20068;-54
2022/06/19 03:05:53;;;;;;;13.52;7.85;;;12.90;99.90;;;;;;5074490;28;20471;-54
2022/06/19 03:08:19;;;;;;;11.75;7.35;;;12.90;99.90;;;;;;5074823;28;20107;-54
2022/06/19 03:10:45;;;;;;;9.77;8.15;;;12.90;99.90;;;;;;5074442;28;20063;-54
2022/06/19 03:13:11;;;;;;;11.25;7.97;;;13.00;99.90;;;;;;5074668;28;20034;-54
2022/06/19 03:15:37;;;;;;;11.02;8.40;;;13.00;99.90;;;;;;5074396;28;20493;-54
2022/06/19 03:18:04;;;;;;;8.93;7.32;;;13.00;99.90;;;;;;5074575;28;20033;-54
2022/06/19 03:20:30;;;;;;;10.25;7.78;;;12.90;99.90;;;;;;5074256;28;20836;-54
2022/06/19 03:22:56;;;;;;;10.93;7.28;;;13.00;99.90;;;;;;5074608;28;20031;-54
2022/06/19 03:25:23;;;;;;;10.30;7.95;;;13.00;99.90;;;;;;5074385;28;20021;-54
2022/06/19 03:27:49;;;;;;;11.43;8.00;;;13.10;99.90;;;;;;5074339;28;20111;-54
2022/06/19 03:30:17;;;;;;;9.57;7.45;;;13.10;99.90;;;;;;5074359;28;20120;-54
2022/06/19 03:32:43;;;;;;;9.15;7.35;;;13.10;99.90;;;;;;5072977;28;20032;-54
2022/06/19 03:35:10;;;;;;;8.38;7.43;;;13.10;99.90;;;;;;5074206;28;20033;-54
2022/06/19 03:37:36;;;;;;;10.32;6.93;;;13.20;99.90;;;;;;5074372;28;20029;-54
2022/06/19 03:40:03;;;;;;;10.60;7.10;;;13.20;99.90;;;;;;5074008;28;20036;-54
2022/06/19 03:42:29;;;;;;;8.95;7.22;;;13.30;99.90;;;;;;5074631;28;20028;-54
2022/06/19 03:44:55;;;;;;;9.82;6.80;;;13.30;99.90;;;;;;5074201;28;20035;-54
2022/06/19 03:47:23;;;;;;;12.77;8.15;;;13.20;99.90;;;;;;5074167;28;20427;-54
2022/06/19 03:49:50;;;;;;;12.32;7.63;;;13.20;99.90;;;;;;5074294;28;20036;-54
2022/06/19 03:52:16;;;;;;;12.00;7.32;;;13.30;99.90;;;;;;5073942;28;20478;-54
2022/06/19 03:54:42;;;;;;;10.73;7.70;;;13.40;99.90;;;;;;5074187;28;20110;-54
2022/06/19 03:57:11;;;;;;;10.70;7.95;;;13.40;99.90;;;;;;5074164;28;20528;-54
2022/06/19 03:59:37;;;;;;;9.43;7.47;;;13.50;99.90;;;;;;5074027;28;20033;-54
2022/06/19 04:02:04;;;;;;;14.27;8.27;;;13.40;99.90;;;;;;5073904;28;20028;-54
2022/06/19 04:04:30;;;;;;;10.77;7.65;;;13.50;99.90;;;;;;5074025;28;20036;-55
2022/06/19 04:06:56;;;;;;;13.32;8.75;;;13.50;99.90;;;;;;5074028;28;20048;-54
2022/06/19 04:09:22;;;;;;;13.23;8.35;;;13.60;99.90;;;;;;5074184;28;20115;-54
2022/06/19 04:11:48;;;;;;;10.73;8.20;;;13.60;99.90;;;;;;5073911;28;20090;-54
2022/06/19 04:14:18;;;;;;;11.77;8.07;;;13.70;99.90;;;;;;5073822;28;20055;-54
2022/06/19 04:16:44;;;;;;;10.10;8.30;;;13.80;99.90;;;;;;5073796;28;20060;-54
2022/06/19 04:19:10;;;;;;;10.63;8.57;;;13.90;99.90;;;;;;5073995;28;20032;-54
2022/06/19 04:21:42;;;;;;;12.93;8.65;;;13.90;99.90;;;;;;5073792;28;20072;-54
2022/06/19 04:24:11;;;;;;;12.60;9.20;;;14.00;99.90;;;;;;5073931;28;20028;-54
2022/06/19 04:26:38;;;;;;;15.75;8.98;;;14.00;99.90;;;;;;5073935;28;20024;-54
2022/06/19 04:29:05;;;;;;;16.30;8.25;;;14.20;99.90;;;;;;5073644;28;20032;-54
2022/06/19 04:31:31;;;;;;;10.88;7.50;;;14.30;99.90;;;;;;5073732;28;20482;-54
2022/06/19 04:33:57;;;;;;;11.35;7.90;;;14.30;99.90;;;;;;5076891;28;20027;-54
2022/06/19 04:36:26;;;;;;;11.82;8.05;;;14.30;99.90;;;;;;5077271;28;20029;-54
2022/06/19 04:38:54;;;;;;;12.95;8.20;;;14.50;99.90;;;;;;5077385;28;20463;-54
2022/06/19 04:41:29;;;;;;;11.32;7.70;;;14.50;99.90;;;;;;5077379;28;20036;-54
2022/06/19 04:43:57;;;;;;;10.50;7.20;;;14.50;99.90;;;;;;5077093;28;20320;-54
2022/06/19 04:46:23;;;;;;;11.18;7.55;;;14.50;99.90;;;;;;5077569;28;20052;-54
2022/06/19 04:48:50;;;;;;;8.18;6.95;;;14.60;99.90;;;;;;5077165;28;20031;-54
2022/06/19 04:51:16;;;;;;;10.45;7.72;;;14.60;99.90;;;;;;5076833;28;20025;-55
2022/06/19 04:53:42;;;;;;;10.48;8.02;;;14.80;99.90;;;;;;5077065;28;20056;-54
2022/06/19 04:56:11;;;;;;;12.07;7.60;;;14.90;99.90;;;;;;5077017;28;20025;-54
2022/06/19 04:58:37;;;;;;;11.50;7.43;;;15.00;99.90;;;;;;5076824;28;20059;-54
2022/06/19 05:01:13;;;;;;;11.30;8.20;;;15.10;99.90;;;;;;5077203;28;20037;-54
2022/06/19 05:03:40;;;;;;;8.55;7.20;;;15.10;99.90;;;;;;5076703;28;20436;-54
2022/06/19 05:06:06;;;;;;;11.43;8.00;;;15.20;99.90;;;;;;5076840;28;20462;-54
2022/06/19 05:08:33;;;;;;;13.30;8.63;;;15.30;99.90;;;;;;5076795;28;20024;-54
2022/06/19 05:10:59;;;;;;;12.35;7.68;;;15.40;99.90;;;;;;5076726;28;20094;-54
2022/06/19 05:13:25;;;;;;;11.82;7.97;;;15.60;99.90;;;;;;5076714;28;20025;-54
2022/06/19 05:16:06;;;;;;;13.98;8.75;;;15.70;99.90;;;;;;5077075;28;20044;-54
2022/06/19 05:18:33;;;;;;;;;;;15.80;99.90;;;;;;5077021;28;20467;-54
2022/06/19 05:21:04;;;;;;;11.20;8.45;;;15.90;99.90;;;;;;5076725;28;19908;-54
2022/06/19 05:23:31;;;;;;;12.73;8.88;;;16.00;99.90;;;;;;5076446;28;20033;-54
2022/06/19 05:26:03;;;;;;;13.68;9.43;;;16.10;99.90;;;;;;5077028;28;20078;-54
2022/06/19 05:28:31;;;;;;;13.30;10.25;;;16.30;99.90;;;;;;5076585;28;20048;-54
2022/06/19 05:30:58;;;;;;;15.20;11.07;;;16.40;99.90;;;;;;5076640;28;20109;-56
2022/06/19 05:33:25;;;;;;;18.23;11.20;;;16.40;99.90;;;;;;5076146;28;20062;-54
2022/06/19 05:35:51;;;;;;;13.35;10.70;;;16.50;99.90;;;;;;5076309;28;20025;-54
2022/06/19 05:38:17;;;;;;;17.55;11.00;;;16.50;99.90;;;;;;5076117;28;20059;-54
2022/06/19 05:40:43;;;;;;;14.23;10.60;;;16.60;99.90;;;;;;5075967;28;20032;-54
2022/06/19 05:43:09;;;;;;;12.70;10.15;;;16.60;99.90;;;;;;5075913;28;20513;-54
2022/06/19 05:45:36;;;;;;;12.38;10.30;;;16.70;99.90;;;;;;5075120;28;20055;-54
2022/06/19 05:48:02;;;;;;;20.77;11.05;;;16.80;99.90;;;;;;5074749;28;20035;-54
2022/06/19 05:50:29;;;;;;;12.98;10.70;;;16.90;99.90;;;;;;5076239;28;20093;-54
2022/06/19 05:52:55;;;;;;;17.20;11.32;;;17.10;99.90;;;;;;5075819;28;20036;-55
2022/06/19 05:55:21;;;;;;;18.92;11.52;;;17.10;99.90;;;;;;5075838;28;20043;-54
2022/06/19 05:57:47;;;;;;;18.63;11.77;;;17.20;99.90;;;;;;5076247;28;20039;-54
2022/06/19 06:00:13;;;;;;;22.70;12.75;;;17.30;99.90;;;;;;5075704;28;20118;-54
2022/06/19 06:02:39;;;;;;;22.20;11.38;;;17.50;99.90;;;;;;5075826;28;20040;-54
2022/06/19 06:05:05;;;;;;;19.45;11.55;;;17.60;99.90;;;;;;5075706;28;20032;-54
2022/06/19 06:07:31;;;;;;;19.70;11.88;;;17.70;99.90;;;;;;5075618;28;20032;-54
2022/06/19 06:09:58;;;;;;;19.75;12.27;;;17.80;99.90;;;;;;5075451;28;20084;-54
2022/06/19 06:12:24;;;;;;;19.15;11.85;;;17.80;99.90;;;;;;5075739;28;20031;-55
2022/06/19 06:14:50;;;;;;;19.90;12.27;;;18.00;99.90;;;;;;5075513;28;20029;-54
2022/06/19 06:17:16;;;;;;;22.23;11.48;;;18.20;99.90;;;;;;5075315;28;20066;-54
2022/06/19 06:19:41;;;;;;;17.40;11.77;;;18.30;99.90;;;;;;5075434;28;20032;-54
2022/06/19 06:22:07;;;;;;;20.00;11.45;;;18.40;99.90;;;;;;5075214;28;20036;-54
2022/06/19 06:24:33;;;;;;;20.05;11.07;;;18.60;99.90;;;;;;5075221;28;20032;-55
2022/06/19 06:27:03;;;;;;;19.92;10.25;;;18.70;99.90;;;;;;5075294;28;20037;-54
2022/06/19 06:29:29;;;;;;;14.38;10.85;;;18.80;99.90;;;;;;5075108;28;20032;-54
2022/06/19 06:31:57;;;;;;;15.02;10.43;;;19.00;99.90;;;;;;5075264;28;20036;-54
2022/06/19 06:34:24;;;;;;;15.40;9.65;;;19.10;99.90;;;;;;5075007;28;20032;-54
2022/06/19 06:36:50;;;;;;;17.60;11.20;;;19.30;99.90;;;;;;5075407;28;20028;-54
2022/06/19 06:39:16;;;;;;;15.77;9.70;;;19.50;99.90;;;;;;5074863;28;20043;-54
2022/06/19 06:41:42;;;;;;;19.20;10.55;;;19.70;99.90;;;;;;5074902;28;20032;-55
2022/06/19 06:44:15;;;;;;;19.65;10.88;;;19.90;99.90;;;;;;5075021;28;20027;-54
2022/06/19 06:46:41;;;;;;;20.48;10.57;;;20.10;99.90;;;;;;5074838;28;20058;-55
2022/06/19 06:49:08;;;;;;;13.07;9.93;;;20.30;99.90;;;;;;5074702;28;20032;-55
2022/06/19 06:51:34;;;;;;;13.52;9.90;;;20.50;99.90;;;;;;5074725;28;20021;-55
2022/06/19 06:54:00;;;;;;;13.00;9.43;;;20.70;99.90;;;;;;5074707;28;20067;-55
2022/06/19 06:56:31;;;;;;;9.75;8.70;;;20.90;99.90;;;;;;5074465;28;20029;-54
2022/06/19 06:58:57;;;;;;;;;;;20.90;99.90;;;;;;5075093;28;20393;-55
2022/06/19 07:01:23;;;;;;;14.93;9.00;;;21.10;99.60;;;;;;5074712;28;19911;-55
2022/06/19 07:03:59;;;;;;;18.02;9.18;;;21.50;99.90;;;;;;5074674;28;20103;-55
2022/06/19 07:06:28;;;;;;;17.02;8.93;;;21.60;97.30;;;;;;5074614;28;20027;-55
2022/06/19 07:08:54;;;;;;;14.95;7.80;;;21.80;95.00;;;;;;5074581;28;20030;-55
2022/06/19 07:11:24;;;;;;;16.92;8.15;;;22.10;94.80;;;;;;5074523;28;20517;-55
2022/06/19 07:13:50;;;;;;;13.85;7.38;;;22.50;95.90;;;;;;5074489;28;20021;-55
2022/06/19 07:16:16;;;;;;;13.23;8.50;;;22.90;93.00;;;;;;5074547;28;20028;-55
2022/06/19 07:18:42;;;;;;;13.85;7.60;;;23.10;87.30;;;;;;5074427;28;20052;-55
2022/06/19 07:21:11;;;;;;;12.82;7.63;;;23.40;92.00;;;;;;5074518;28;20033;-55
2022/06/19 07:23:37;;;;;;;10.02;7.82;;;23.90;91.50;;;;;;5074639;28;20036;-55
2022/06/19 07:26:03;;;;;;;10.20;6.75;;;24.30;88.90;;;;;;5074411;28;20052;-55
2022/06/19 07:28:29;;;;;;;10.00;6.85;;;24.70;84.20;;;;;;5074031;28;20072;-55
2022/06/19 07:30:55;;;;;;;11.10;6.70;;;25.00;78.20;;;;;;5074391;28;20028;-55
2022/06/19 07:33:21;;;;;;;10.93;6.93;;;24.80;73.80;;;;;;5074171;28;20478;-55
2022/06/19 07:35:47;;;;;;;10.00;6.35;;;24.70;71.10;;;;;;5074247;28;20069;-55
2022/06/19 07:38:13;;;;;;;10.73;5.97;;;25.00;69.30;;;;;;5074392;28;20030;-55
2022/06/19 07:40:39;;;;;;;10.70;6.47;;;25.40;69.20;;;;;;5074165;28;20024;-55
2022/06/19 07:43:05;;;;;;;8.55;6.40;;;25.80;68.90;;;;;;5074214;28;20036;-55
2022/06/19 07:45:31;;;;;;;11.48;6.30;;;26.20;62.70;;;;;;5074179;28;20033;-55
2022/06/19 07:50:42;;;;;;;9.63;5.38;;;26.80;59.40;;;;;;5074128;28;20055;-55
2022/06/19 07:53:08;;;;;;;9.60;5.38;;;26.90;57.80;;;;;;5074055;28;20078;-55
2022/06/19 07:55:35;;;;;;;10.68;5.07;;;27.30;59.60;;;;;;5074133;28;20056;-55
2022/06/19 07:58:01;;;;;;;10.75;4.80;;;27.70;61.70;;;;;;5074158;28;20024;-55
2022/06/19 08:00:34;;;;;;;7.90;5.03;;;27.50;54.20;;;;;;5073919;28;20024;-55
2022/06/19 08:03:00;;;;;;;11.35;4.65;;;27.80;57.20;;;;;;5074024;28;20024;-55
2022/06/19 08:05:29;;;;;;;7.32;4.57;;;28.20;55.00;;;;;;5074093;28;20028;-55
2022/06/19 08:07:59;;;;;;;9.23;4.00;;;28.50;54.60;;;;;;5075609;28;20103;-55
2022/06/19 08:10:37;;;;;;;8.00;4.38;;;28.70;51.90;;;;;;5077822;28;20036;-55
2022/06/19 08:13:04;;;;;;;7.57;4.68;;;28.60;51.90;;;;;;5077854;28;20112;-55
2022/06/19 08:15:32;;;;;;;7.65;3.70;;;28.80;49.90;;;;;;5077607;28;20048;-55
2022/06/19 08:17:58;;;;;;;7.03;3.72;;;28.40;48.70;;;;;;5077752;28;20086;-55
2022/06/19 08:20:24;;;;;;;5.30;3.40;;;28.10;49.40;;;;;;5077676;28;20028;-55
2022/06/19 08:22:50;;;;;;;5.10;2.85;;;28.70;52.10;;;;;;5077479;28;20344;-55
2022/06/19 08:25:19;;;;;;;12.00;3.65;;;29.10;48.90;;;;;;5077690;28;20497;-55
2022/06/19 08:27:48;;;;;;;11.88;3.58;;;28.70;45.30;;;;;;5077682;28;20038;-55
2022/06/19 08:30:32;;;;;;;8.93;3.63;;;28.80;49.20;;;;;;5077377;28;20036;-55
2022/06/19 08:32:58;;;;;;;7.15;2.67;;;29.40;46.40;;;;;;5077296;28;20031;-55
2022/06/19 08:35:25;;;;;;;6.53;3.30;;;29.90;46.80;;;;;;5077409;28;20024;-56
2022/06/19 08:37:57;;;;;;;6.10;2.92;;;30.20;46.30;;;;;;5077329;28;20020;-55
2022/06/19 08:40:29;;;;;;;6.72;2.30;;;30.60;46.20;;;;;;5077189;28;20490;-56
2022/06/19 08:43:19;;;;;;;6.05;1.67;;;30.00;38.90;;;;;;5077345;28;20371;-55
2022/06/19 08:45:48;;;;;;;2.58;1.50;;;29.50;37.90;;;;;;5077291;28;20085;-56
2022/06/19 08:48:23;;;;;;;6.05;1.77;;;29.60;37.30;;;;;;5077205;28;20040;-55
2022/06/19 08:51:28;;;;;;;3.55;1.80;;;30.40;39.20;;;;;;5077183;28;20021;-55
2022/06/19 08:54:05;;;;;;;2.08;1.67;;;30.60;38.10;;;;;;5034536;28;20549;-55
2022/06/19 08:57:11;;;;;;;3.05;1.50;;;30.00;38.90;;;;;;5034769;28;20057;-55
2022/06/19 08:59:46;;;;;;;3.25;1.35;;;29.70;36.00;;;;;;5007467;28;20159;-55
2022/06/19 09:02:30;;;;;;;4.60;1.38;;;30.30;36.20;;;;;;5034537;28;20132;-55
2022/06/19 09:08:29;;;;;;;2.55;1.52;;;30.10;34.30;;;;;;5034504;28;20045;-55
2022/06/19 09:11:01;;;;;;;2.67;1.40;;;29.90;35.80;;;;;;5034512;28;20399;-55
2022/06/19 09:13:42;;;;;;;4.20;2.50;;;30.00;35.10;;;;;;5034383;28;20522;-55
2022/06/19 09:16:37;;;;;;;3.70;1.63;;;29.50;34.20;;;;;;5034209;28;20033;-55
2022/06/19 09:19:37;;;;;;;5.28;1.10;;;29.30;35.00;;;;;;5033916;28;20040;-55
2022/06/19 09:22:15;;;;;;;3.00;1.38;;;29.00;33.30;;;;;;5000573;28;20118;-55
2022/06/19 09:24:47;;;;;;;2.67;1.20;;;29.00;34.20;;;;;;5034250;28;20034;-55
2022/06/19 09:27:15;;;;;;;2.95;1.10;;;29.00;35.60;;;;;;5042753;28;20041;-55
2022/06/19 09:30:02;;;;;;;5.25;1.58;;;29.40;35.30;;;;;;5076562;28;20055;-55
2022/06/19 09:32:35;;;;;;;5.22;1.48;;;30.00;33.60;;;;;;5076402;28;20040;-55
2022/06/19 09:35:12;;;;;;;4.03;1.05;;;30.90;37.60;;;;;;5076187;28;20032;-55
2022/06/19 09:38:05;;;;;;;18.38;2.63;;;31.00;30.00;;;;;;5076412;28;20086;-55
2022/06/19 09:40:41;;;;;;;4.78;1.52;;;31.60;37.00;;;;;;5076262;28;20036;-55
2022/06/19 09:43:20;;;;;;;3.50;1.40;;;31.20;31.10;;;;;;5076116;28;20541;-55
2022/06/19 09:46:02;;;;;;;2.50;1.25;;;30.40;30.90;;;;;;5076168;28;20032;-55
2022/06/19 09:48:49;;;;;;;3.83;1.20;;;30.40;33.30;;;;;;5075996;28;20028;-55
2022/06/19 09:51:40;;;;;;;2.25;1.35;;;30.70;33.70;;;;;;5075804;28;20033;-55
2022/06/19 09:54:18;;;;;;;1.88;1.27;;;30.30;32.10;;;;;;5075942;28;20036;-55
2022/06/19 09:56:51;;;;;;;6.25;1.67;;;31.50;37.40;;;;;;5075880;28;20033;-55
2022/06/19 09:59:34;;;;;;;8.95;2.75;;;31.80;37.50;;;;;;5075886;28;20110;-55
2022/06/19 10:02:40;;;;;;;6.18;1.35;;;30.80;31.20;;;;;;5075744;28;20040;-55
2022/06/19 10:05:34;;;;;;;5.43;1.70;;;31.60;34.40;;;;;;5054647;28;20086;-55
2022/06/19 10:08:08;;;;;;;2.75;1.67;;;32.00;33.10;;;;;;5069912;28;20048;-55
2022/06/19 10:10:46;;;;;;;2.97;1.83;;;31.60;31.60;;;;;;5075829;28;20405;-55
2022/06/19 10:13:30;;;;;;;2.00;1.40;;;32.00;32.50;;;;;;5075610;28;20036;-55
2022/06/19 10:16:00;;;;;;;3.17;1.63;;;31.40;32.20;;;;;;5075286;28;20083;-55
2022/06/19 10:18:34;;;;;;;5.50;1.50;;;30.80;32.70;;;;;;5075340;28;20028;-55
2022/06/19 10:21:10;;;;;;;6.88;1.90;;;30.80;33.90;;;;;;5075406;28;20035;-55
2022/06/19 10:23:59;;;;;;;3.67;1.67;;;30.00;33.70;;;;;;5075213;28;20032;-55
2022/06/19 10:26:36;;;;;;;2.53;1.83;;;30.70;34.40;;;;;;5075368;28;20462;-55
2022/06/19 10:29:23;;;;;;;4.78;1.55;;;30.80;33.10;;;;;;5075105;28;20395;-55
2022/06/19 10:32:11;;;;;;;3.92;1.70;;;30.00;34.10;;;;;;5074521;28;20025;-55
2022/06/19 10:35:21;;;;;;;4.90;1.70;;;31.20;35.10;;;;;;5055163;28;20082;-55
2022/06/19 10:38:00;;;;;;;2.95;1.38;;;32.00;34.00;;;;;;5055061;28;20101;-55
2022/06/19 10:40:39;;;;;;;4.93;1.40;;;30.90;33.50;;;;;;5070032;28;20032;-55
2022/06/19 10:43:35;;;;;;;3.20;1.50;;;30.20;35.40;;;;;;5075084;28;20064;-55
2022/06/19 10:46:07;;;;;;;2.90;1.70;;;31.60;38.20;;;;;;5074681;28;20036;-55
2022/06/19 10:48:43;;;;;;;6.03;2.03;;;32.70;39.30;;;;;;5074705;28;20529;-55
2022/06/19 10:51:28;;;;;;;2.08;1.40;;;33.00;32.60;;;;;;5074610;28;20036;-55
2022/06/19 10:54:24;;;;;;;4.40;1.92;;;32.70;32.20;;;;;;5074627;28;20044;-55
2022/06/19 10:57:29;;;;;;;4.50;1.70;;;33.00;31.00;;;;;;5074618;28;20025;-55
2022/06/19 10:59:55;;;;;;;2.20;1.60;;;33.20;30.50;;;;;;5074688;28;20024;-55
2022/06/19 11:05:53;;;;;;;2.65;1.95;;;32.50;34.50;;;;;;5074679;28;20029;-55
2022/06/19 11:08:22;;;;;;;3.38;1.65;;;33.00;32.80;;;;;;5074542;28;20028;-55
2022/06/19 11:10:55;;;;;;;2.83;1.45;;;32.80;32.30;;;;;;5074661;28;20020;-55
2022/06/19 11:13:21;;;;;;;1.63;1.52;;;32.50;34.90;;;;;;5074514;28;20115;-55
2022/06/19 11:16:01;;;;;;;2.95;1.45;;;33.40;33.60;;;;;;5074559;28;20110;-55
2022/06/19 11:18:27;;;;;;;;;;;33.70;35.10;;;;;;5074956;28;20032;-55
2022/06/19 11:21:06;;;;;;;3.85;1.80;;;33.10;30.50;;;;;;5074282;28;19978;-55
2022/06/19 11:23:39;;;;;;;4.95;2.10;;;31.60;32.90;;;;;;5074556;28;20059;-55
2022/06/19 11:26:19;;;;;;;3.50;1.92;;;32.20;31.40;;;;;;5074359;28;20386;-55
2022/06/19 11:28:59;;;;;;;3.10;1.70;;;33.00;35.50;;;;;;5074351;28;20051;-55
2022/06/19 11:31:33;;;;;;;3.20;1.90;;;33.70;32.70;;;;;;5074498;28;20039;-55
2022/06/19 11:37:21;;;;;;;5.43;1.98;;;33.50;30.00;;;;;;5074204;28;20037;-55
2022/06/19 11:39:52;;;;;;;4.93;1.92;;;33.10;32.50;;;;;;5074159;28;20039;-55
2022/06/19 11:42:20;;;;;;;3.08;2.13;;;33.70;31.90;;;;;;5076691;28;20063;-55
2022/06/19 11:44:57;;;;;;;4.68;2.00;;;33.50;31.80;;;;;;5078301;28;20067;-55
2022/06/19 11:47:39;;;;;;;4.60;1.80;;;33.40;29.90;;;;;;5078496;28;20080;-55
2022/06/19 11:50:08;;;;;;;3.47;1.60;;;33.00;31.70;;;;;;5078256;28;20032;-55
2022/06/19 11:52:34;;;;;;;2.70;1.77;;;33.60;32.10;;;;;;5078156;28;20124;-55
2022/06/19 11:55:01;;;;;;;5.30;1.40;;;33.50;30.60;;;;;;5078255;28;20187;-55
2022/06/19 11:57:33;;;;;;;2.83;1.88;;;33.70;33.60;;;;;;5078039;28;20545;-55
2022/06/19 12:00:05;;;;;;;3.95;3.42;;;33.60;30.80;;;;;;5078216;28;20103;-55
2022/06/19 12:02:38;;;;;;;3.85;2.05;;;33.70;33.70;;;;;;5078010;28;20910;-55
2022/06/19 12:05:21;;;;;;;2.00;1.80;;;34.00;31.30;;;;;;5078024;28;20037;-55
2022/06/19 12:07:47;;;;;;;3.35;1.95;;;32.60;32.00;;;;;;5077927;28;20109;-55
2022/06/19 12:10:26;;;;;;;7.20;1.90;;;33.70;34.70;;;;;;5077939;28;20036;-55
2022/06/19 12:12:59;;;;;;;3.22;1.80;;;34.20;35.60;;;;;;5077959;28;20507;-55
2022/06/19 12:15:35;;;;;;;3.40;1.80;;;34.40;33.80;;;;;;5077906;28;20020;-55
2022/06/19 12:18:16;;;;;;;1.73;1.63;;;34.40;33.40;;;;;;5077740;28;20135;-55
2022/06/19 12:20:42;;;;;;;9.55;3.10;;;34.60;32.50;;;;;;5077849;28;20036;-55
2022/06/19 12:23:17;;;;;;;7.47;1.95;;;34.90;32.10;;;;;;5077846;28;20028;-55
2022/06/19 12:25:55;;;;;;;5.45;2.20;;;35.00;33.00;;;;;;5077712;28;20037;-55
2022/06/19 12:28:39;;;;;;;2.30;2.10;;;34.90;32.70;;;;;;5077509;28;20036;-55
2022/06/19 12:31:15;;;;;;;3.13;1.83;;;34.00;35.20;;;;;;5077648;28;20025;-55
2022/06/19 12:34:08;;;;;;;3.28;2.20;;;34.20;33.20;;;;;;5077441;28;20430;-55
2022/06/19 12:36:35;;;;;;;4.78;1.80;;;34.30;31.30;;;;;;5077409;28;20359;-55
2022/06/19 12:39:03;;;;;;;8.80;3.03;;;34.40;32.50;;;;;;5077139;28;20055;-55
2022/06/19 12:41:57;;;;;;;4.47;2.20;;;34.20;36.40;;;;;;5077329;28;20416;-55
2022/06/19 12:44:58;;;;;;;3.58;2.03;;;34.40;35.10;;;;;;5077302;28;20593;-55
2022/06/19 12:47:27;;;;;;;3.38;1.95;;;34.60;32.20;;;;;;5077641;28;20029;-55
2022/06/19 12:50:17;;;;;;;2.95;1.83;;;34.40;33.40;;;;;;5077241;28;20024;-55
2022/06/19 12:53:08;;;;;;;4.85;2.30;;;34.50;34.00;;;;;;5076347;28;20082;-55
2022/06/19 12:55:55;;;;;;;5.70;3.50;;;34.50;32.90;;;;;;5076935;28;20117;-55
2022/06/19 12:58:36;;;;;;;7.40;2.22;;;34.20;33.80;;;;;;5077113;28;20028;-55
2022/06/19 13:01:25;;;;;;;5.65;3.22;;;34.00;31.80;;;;;;5076918;28;20084;-55
2022/06/19 13:04:08;;;;;;;6.33;2.70;;;33.50;33.20;;;;;;5076419;28;20490;-55
2022/06/19 13:07:19;;;;;;;2.88;2.20;;;33.70;33.60;;;;;;5077035;28;20021;-55
2022/06/19 13:10:01;;;;;;;6.45;2.97;;;34.00;35.10;;;;;;5053547;28;20052;-55
2022/06/19 13:12:48;;;;;;;6.63;2.65;;;34.00;34.50;;;;;;5076969;28;20035;-55
2022/06/19 13:15:58;;;;;;;4.55;2.20;;;34.10;35.30;;;;;;5076650;28;20050;-55
2022/06/19 13:18:43;;;;;;;5.53;2.42;;;34.10;31.20;;;;;;5034272;28;20033;-55
2022/06/19 13:21:46;;;;;;;7.28;1.95;;;34.00;33.30;;;;;;5034310;28;20041;-55